createdAt,value
2022-08-26T00:00:20.243Z,2.10
2022-08-26T00:03:03.786Z,1.50
2022-08-26T00:05:32.414Z,2.20
2022-08-26T00:08:00.843Z,1.60
2022-08-26T00:10:29.778Z,1.70
2022-08-26T00:12:59.357Z,1.60
2022-08-26T00:15:56.880Z,1.80
2022-08-26T00:18:25.966Z,2.10
2022-08-26T00:20:55.141Z,2.10
2022-08-26T00:23:24.381Z,1.40
2022-08-26T00:25:54.976Z,1.50
2022-08-26T00:28:26.646Z,1.70
2022-08-26T00:30:57.691Z,1.40
2022-08-26T00:33:26.037Z,1.60
2022-08-26T00:35:54.465Z,1.60
2022-08-26T00:38:24.191Z,1.70
2022-08-26T00:40:55.828Z,1.70
2022-08-26T00:43:26.786Z,1.90
2022-08-26T00:46:06.602Z,1.40
2022-08-26T00:48:37.779Z,1.90
2022-08-26T00:51:17.153Z,1.90
2022-08-26T00:53:53.791Z,1.50
2022-08-26T00:56:30.133Z,2.20
2022-08-26T00:59:02.261Z,1.80
2022-08-26T01:01:33.276Z,1.50
2022-08-26T01:04:02.285Z,1.80
2022-08-26T01:06:31.628Z,1.70
2022-08-26T01:09:00.181Z,1.90
2022-08-26T01:11:28.629Z,1.80
2022-08-26T01:13:59.663Z,2.00
2022-08-26T01:16:30.828Z,1.70
2022-08-26T01:19:06.635Z,1.90
2022-08-26T01:21:44.193Z,2.20
2022-08-26T01:24:14.024Z,1.80
2022-08-26T01:26:44.896Z,2.00
2022-08-26T01:29:17.952Z,2.00
2022-08-26T01:31:52.465Z,1.80
2022-08-26T01:34:26.125Z,2.00
2022-08-26T01:37:15.497Z,2.10
2022-08-26T01:39:49.122Z,2.10
2022-08-26T01:42:20.369Z,2.10
2022-08-26T01:44:57.438Z,1.90
2022-08-26T01:47:46.936Z,2.10
2022-08-26T01:50:27.774Z,1.90
2022-08-26T01:53:00.399Z,2.10
2022-08-26T01:55:33.215Z,1.60
2022-08-26T01:58:08.308Z,1.80
2022-08-26T02:00:38.226Z,1.90
2022-08-26T02:03:17.445Z,3.50
2022-08-26T02:05:51.308Z,2.30
2022-08-26T02:08:37.769Z,2.10
2022-08-26T02:11:07.718Z,1.80
2022-08-26T02:13:46.613Z,2.10
2022-08-26T02:16:22.385Z,1.90
2022-08-26T02:18:55.824Z,2.00
2022-08-26T02:21:25.042Z,2.10
2022-08-26T02:23:55.998Z,1.60
2022-08-26T02:26:27.034Z,2.40
2022-08-26T02:29:31.812Z,2.00
2022-08-26T02:32:00.993Z,2.60
2022-08-26T02:34:32.169Z,2.20
2022-08-26T02:37:06.522Z,1.80
2022-08-26T02:39:37.111Z,1.40
2022-08-26T02:42:06.387Z,2.00
2022-08-26T02:44:35.315Z,1.80
2022-08-26T02:47:04.619Z,2.70
2022-08-26T02:49:33.749Z,2.00
2022-08-26T02:52:02.186Z,1.80
2022-08-26T02:54:31.724Z,2.10
2022-08-26T02:57:01.942Z,1.90
2022-08-26T02:59:32.123Z,2.30
2022-08-26T03:02:00.664Z,1.80
2022-08-26T03:04:30.686Z,1.60
2022-08-26T03:07:02.772Z,1.80
2022-08-26T03:09:32.189Z,1.80
2022-08-26T03:12:01.461Z,2.50
2022-08-26T03:14:30.565Z,2.20
2022-08-26T03:16:59.192Z,2.00
2022-08-26T03:19:27.690Z,2.00
2022-08-26T03:21:57.891Z,2.10
2022-08-26T03:24:27.012Z,2.00
2022-08-26T03:26:55.420Z,2.10
2022-08-26T03:29:43.335Z,2.10
2022-08-26T03:32:12.544Z,1.70
2022-08-26T03:34:40.970Z,2.00
2022-08-26T03:37:10.175Z,1.80
2022-08-26T03:39:38.594Z,2.20
2022-08-26T03:42:09.387Z,2.40
2022-08-26T03:44:42.230Z,2.20
2022-08-26T03:47:11.234Z,2.10
2022-08-26T03:49:39.813Z,2.00
2022-08-26T03:52:08.199Z,2.10
2022-08-26T03:54:36.879Z,2.80
2022-08-26T03:57:05.386Z,2.10
2022-08-26T03:59:34.234Z,1.50
2022-08-26T04:02:02.756Z,1.90
2022-08-26T04:04:31.400Z,1.90
2022-08-26T04:07:00.568Z,2.00
2022-08-26T04:09:29.153Z,2.30
2022-08-26T04:11:58.783Z,2.20
2022-08-26T04:14:28.382Z,2.20
2022-08-26T04:16:57.257Z,2.50
2022-08-26T04:19:27.155Z,3.30
2022-08-26T04:21:55.461Z,2.80
2022-08-26T04:24:26.178Z,3.60
2022-08-26T04:26:56.876Z,3.60
2022-08-26T04:29:26.992Z,3.40
2022-08-26T04:31:56.020Z,4.10
2022-08-26T04:34:28.342Z,3.00
2022-08-26T04:36:58.504Z,3.50
2022-08-26T04:39:27.689Z,3.80
2022-08-26T04:41:57.659Z,4.40
2022-08-26T04:44:29.219Z,4.40
2022-08-26T04:46:58.823Z,4.80
2022-08-26T04:49:27.790Z,3.50
2022-08-26T04:51:56.258Z,4.10
2022-08-26T04:54:26.295Z,3.80
2022-08-26T04:56:55.333Z,2.80
2022-08-26T04:59:25.339Z,2.50
2022-08-26T05:04:49.291Z,2.40
2022-08-26T05:07:20.353Z,2.50
2022-08-26T05:09:49.752Z,2.00
2022-08-26T05:12:18.648Z,2.20
2022-08-26T05:14:47.467Z,2.70
2022-08-26T05:17:15.966Z,2.40
2022-08-26T05:19:44.972Z,2.50
2022-08-26T05:22:14.082Z,2.70
2022-08-26T05:24:43.879Z,3.00
2022-08-26T05:27:13.625Z,3.20
2022-08-26T05:29:42.633Z,3.30
2022-08-26T05:32:12.750Z,2.80
2022-08-26T05:34:41.246Z,2.80
2022-08-26T05:37:11.506Z,2.10
2022-08-26T05:39:43.564Z,2.60
2022-08-26T05:42:20.186Z,3.30
2022-08-26T05:44:53.699Z,3.10
2022-08-26T05:47:26.425Z,2.70
2022-08-26T05:49:56.316Z,2.90
2022-08-26T05:52:26.092Z,3.30
2022-08-26T05:54:55.312Z,3.00
2022-08-26T05:57:23.910Z,3.70
2022-08-26T05:59:53.107Z,3.60
2022-08-26T06:02:22.127Z,2.90
2022-08-26T06:04:50.433Z,2.30
2022-08-26T06:07:40.618Z,2.70
2022-08-26T06:10:32.516Z,2.10
2022-08-26T06:13:09.294Z,3.60
2022-08-26T06:15:46.149Z,2.30
2022-08-26T06:18:17.501Z,2.30
2022-08-26T06:20:57.120Z,2.70
2022-08-26T06:23:48.005Z,2.40
2022-08-26T06:26:16.945Z,2.10
2022-08-26T06:28:45.851Z,2.30
2022-08-26T06:31:15.823Z,2.50
2022-08-26T06:33:45.559Z,2.80
2022-08-26T06:36:25.521Z,2.10
2022-08-26T06:38:56.089Z,2.30
2022-08-26T06:41:25.945Z,2.70
2022-08-26T06:43:54.374Z,2.80
2022-08-26T06:46:23.016Z,2.80
2022-08-26T06:48:55.708Z,2.70
2022-08-26T06:51:36.039Z,2.90
2022-08-26T06:54:06.218Z,2.90
2022-08-26T06:56:41.824Z,3.10
2022-08-26T06:59:12.112Z,2.90
2022-08-26T07:01:46.381Z,3.20
2022-08-26T07:04:22.163Z,2.50
2022-08-26T07:06:53.711Z,2.80
2022-08-26T07:09:25.545Z,3.00
2022-08-26T07:11:58.556Z,2.80
2022-08-26T07:14:27.062Z,2.90
2022-08-26T07:16:55.650Z,2.70
2022-08-26T07:19:30.464Z,2.90
2022-08-26T07:22:04.720Z,3.00
2022-08-26T07:24:36.829Z,2.40
2022-08-26T07:27:07.483Z,3.00
2022-08-26T07:29:39.517Z,2.60
2022-08-26T07:32:10.056Z,2.70
2022-08-26T07:34:39.164Z,2.60
2022-08-26T07:37:08.696Z,2.50
2022-08-26T07:39:37.880Z,2.70
2022-08-26T07:42:13.264Z,3.10
2022-08-26T07:44:43.581Z,2.60
2022-08-26T07:47:25.827Z,3.20
2022-08-26T07:49:58.078Z,2.90
2022-08-26T07:52:28.968Z,2.70
2022-08-26T07:54:59.402Z,2.50
2022-08-26T07:57:28.855Z,2.70
2022-08-26T07:59:57.569Z,3.20
2022-08-26T08:02:27.408Z,2.40
2022-08-26T08:04:57.908Z,2.40
2022-08-26T08:07:44.992Z,2.70
2022-08-26T08:10:18.708Z,3.30
2022-08-26T08:12:50.489Z,2.70
2022-08-26T08:15:21.927Z,2.30
2022-08-26T08:17:51.622Z,2.80
2022-08-26T08:20:22.252Z,2.60
2022-08-26T08:22:52.919Z,3.00
2022-08-26T08:25:23.500Z,2.90
2022-08-26T08:27:51.856Z,2.60
2022-08-26T08:30:23.024Z,2.40
2022-08-26T08:32:52.587Z,2.40
2022-08-26T08:35:22.895Z,2.60
2022-08-26T08:37:54.527Z,2.40
2022-08-26T08:40:26.458Z,2.40
2022-08-26T08:43:11.784Z,2.50
2022-08-26T08:45:49.746Z,2.30
2022-08-26T08:48:35.080Z,3.50
2022-08-26T08:51:30.140Z,2.70
2022-08-26T08:54:00.360Z,2.50
2022-08-26T08:56:45.021Z,2.70
2022-08-26T08:59:18.177Z,2.30
2022-08-26T09:05:05.718Z,3.00
2022-08-26T09:07:49.021Z,2.80
2022-08-26T09:13:13.720Z,3.00
2022-08-26T09:16:14.158Z,2.90
2022-08-26T09:19:11.318Z,2.80
2022-08-26T09:21:39.736Z,2.90
2022-08-26T09:24:08.413Z,2.50
2022-08-26T09:26:39.718Z,2.70
2022-08-26T09:29:14.654Z,2.90
2022-08-26T09:31:43.043Z,2.90
2022-08-26T09:34:19.591Z,2.60
2022-08-26T09:36:51.564Z,2.90
2022-08-26T09:39:31.256Z,3.10
2022-08-26T09:42:07.677Z,2.40
2022-08-26T09:44:52.922Z,3.00
2022-08-26T09:47:52.836Z,2.60
2022-08-26T09:50:55.644Z,2.50
2022-08-26T09:53:30.508Z,3.00
2022-08-26T09:56:27.581Z,3.20
2022-08-26T09:58:57.776Z,2.50
2022-08-26T10:01:38.442Z,2.40
2022-08-26T10:04:15.041Z,2.40
2022-08-26T10:07:05.287Z,2.60
2022-08-26T10:09:39.133Z,2.50
2022-08-26T10:12:13.472Z,2.50
2022-08-26T10:15:12.080Z,2.40
2022-08-26T10:17:53.573Z,2.80
2022-08-26T10:20:28.929Z,2.30
2022-08-26T10:23:03.400Z,3.00
2022-08-26T10:25:47.396Z,2.80
2022-08-26T10:28:35.581Z,2.20
2022-08-26T10:31:29.660Z,2.40
2022-08-26T10:34:07.296Z,2.50
2022-08-26T10:42:35.558Z,2.30
2022-08-26T10:45:08.037Z,2.60
2022-08-26T10:47:52.364Z,2.90
2022-08-26T10:50:25.147Z,2.60
2022-08-26T10:53:04.084Z,2.90
2022-08-26T10:55:57.413Z,3.40
2022-08-26T11:01:40.752Z,2.80
2022-08-26T11:04:16.782Z,3.10
2022-08-26T11:06:46.258Z,2.90
2022-08-26T11:09:45.997Z,2.80
2022-08-26T11:12:36.342Z,3.20
2022-08-26T11:15:09.066Z,3.70
2022-08-26T11:20:33.481Z,3.80
2022-08-26T11:23:14.570Z,3.10
2022-08-26T11:26:01.100Z,3.20
2022-08-26T11:28:45.651Z,2.60
2022-08-26T11:31:25.438Z,2.90
2022-08-26T11:34:07.261Z,3.40
2022-08-26T11:36:47.951Z,3.50
2022-08-26T11:39:28.991Z,3.70
2022-08-26T11:42:05.395Z,4.10
2022-08-26T11:44:49.580Z,4.40
2022-08-26T11:47:29.456Z,4.20
2022-08-26T11:50:17.643Z,4.90
2022-08-26T11:53:07.658Z,4.80
2022-08-26T11:55:42.873Z,3.60
2022-08-26T11:58:15.048Z,4.60
2022-08-26T12:00:46.315Z,5.20
2022-08-26T12:03:43.988Z,3.40
2022-08-26T12:06:16.864Z,3.20
2022-08-26T12:08:47.656Z,3.50
2022-08-26T12:11:32.032Z,3.10
2022-08-26T12:14:07.255Z,5.40
2022-08-26T12:16:39.669Z,3.70
2022-08-26T12:19:32.911Z,3.10
2022-08-26T12:22:27.805Z,3.20
2022-08-26T12:24:59.539Z,3.90
2022-08-26T12:27:42.863Z,3.10
2022-08-26T12:30:18.025Z,3.90
2022-08-26T12:33:03.374Z,3.00
2022-08-26T12:35:56.561Z,3.30
2022-08-26T12:38:27.614Z,4.10
2022-08-26T12:40:57.179Z,3.60
2022-08-26T12:43:38.572Z,4.40
2022-08-26T12:46:10.568Z,3.50
2022-08-26T12:48:42.905Z,3.70
2022-08-26T12:51:24.939Z,3.30
2022-08-26T12:53:54.382Z,3.60
2022-08-26T12:56:40.732Z,4.30
2022-08-26T12:59:29.264Z,4.60
2022-08-26T13:01:57.697Z,4.10
2022-08-26T13:04:40.485Z,3.40
2022-08-26T13:07:18.289Z,5.00
2022-08-26T13:09:47.326Z,5.90
2022-08-26T13:12:37.469Z,4.50
2022-08-26T13:15:07.203Z,4.80
2022-08-26T13:17:36.150Z,5.70
2022-08-26T13:20:05.040Z,4.70
2022-08-26T13:22:34.456Z,5.60
2022-08-26T13:25:03.047Z,5.30
2022-08-26T13:27:31.434Z,5.00
2022-08-26T13:30:00.417Z,4.50
2022-08-26T13:32:29.297Z,4.40
2022-08-26T13:34:57.985Z,6.60
2022-08-26T13:37:35.043Z,5.30
2022-08-26T13:40:07.052Z,4.80
2022-08-26T13:42:35.744Z,5.60
2022-08-26T13:45:06.355Z,5.00
2022-08-26T13:47:35.099Z,5.20
2022-08-26T13:50:04.706Z,5.10
2022-08-26T13:52:33.048Z,4.50
2022-08-26T13:55:01.681Z,4.40
2022-08-26T13:57:30.629Z,4.70
2022-08-26T14:00:01.787Z,5.00
2022-08-26T14:02:37.983Z,6.00
2022-08-26T14:05:07.175Z,6.00
2022-08-26T14:07:35.509Z,5.00
2022-08-26T14:10:04.116Z,4.60
2022-08-26T14:12:32.473Z,6.00
2022-08-26T14:15:00.780Z,6.20
2022-08-26T14:17:30.765Z,5.40
2022-08-26T14:19:59.314Z,4.20
2022-08-26T14:22:28.084Z,5.40
2022-08-26T14:24:56.780Z,5.00
2022-08-26T14:27:25.579Z,5.10
2022-08-26T14:29:54.468Z,5.00
2022-08-26T14:32:27.313Z,5.00
2022-08-26T14:34:56.220Z,4.80
2022-08-26T14:37:24.848Z,4.60
2022-08-26T14:40:31.360Z,5.80
2022-08-26T14:43:02.639Z,5.80
2022-08-26T14:45:34.769Z,5.50
2022-08-26T14:48:05.688Z,5.30
2022-08-26T14:50:33.887Z,6.00
2022-08-26T14:53:20.408Z,6.60
2022-08-26T14:55:48.865Z,5.30
2022-08-26T14:58:17.065Z,6.60
2022-08-26T15:00:45.222Z,4.70
2022-08-26T15:05:48.448Z,5.20
2022-08-26T15:08:16.926Z,7.00
2022-08-26T15:10:45.000Z,5.10
2022-08-26T15:13:13.107Z,5.20
2022-08-26T15:15:41.263Z,5.70
2022-08-26T15:18:10.106Z,7.00
2022-08-26T15:20:38.703Z,5.70
2022-08-26T15:23:07.469Z,6.00
2022-08-26T15:25:35.767Z,5.80
2022-08-26T15:28:04.175Z,6.50
2022-08-26T15:30:33.648Z,5.30
2022-08-26T15:33:01.950Z,6.30
2022-08-26T15:35:30.111Z,5.60
2022-08-26T15:38:04.216Z,5.40
2022-08-26T15:40:32.353Z,5.10
2022-08-26T15:43:17.709Z,4.60
2022-08-26T15:45:46.885Z,5.60
2022-08-26T15:48:16.196Z,6.40
2022-08-26T15:50:56.518Z,7.80
2022-08-26T15:53:24.923Z,5.90
2022-08-26T15:55:58.980Z,6.20
2022-08-26T15:58:28.586Z,5.20
2022-08-26T16:00:56.974Z,6.20
2022-08-26T16:03:25.143Z,6.20
2022-08-26T16:05:53.543Z,5.40
2022-08-26T16:08:22.534Z,5.10
2022-08-26T16:10:51.497Z,5.70
2022-08-26T16:13:20.826Z,4.60
2022-08-26T16:15:52.689Z,7.60
2022-08-26T16:18:20.877Z,5.40
2022-08-26T16:21:12.391Z,5.20
2022-08-26T16:23:45.179Z,5.10
2022-08-26T16:26:20.773Z,5.00
2022-08-26T16:28:49.239Z,5.30
2022-08-26T16:31:18.116Z,5.00
2022-08-26T16:33:46.398Z,5.50
2022-08-26T16:36:14.963Z,6.70
2022-08-26T16:38:50.247Z,5.00
2022-08-26T16:41:19.365Z,5.20
2022-08-26T16:43:47.863Z,6.60
2022-08-26T16:46:16.360Z,6.20
2022-08-26T16:48:45.709Z,4.30
2022-08-26T16:51:17.021Z,5.70
2022-08-26T16:53:45.964Z,6.40
2022-08-26T16:56:16.521Z,5.20
2022-08-26T16:58:44.858Z,6.50
2022-08-26T17:01:13.092Z,6.10
2022-08-26T17:03:41.743Z,5.30
2022-08-26T17:06:10.358Z,5.10
2022-08-26T17:08:40.137Z,5.20
2022-08-26T17:11:09.114Z,6.00
2022-08-26T17:13:39.333Z,4.80
2022-08-26T17:16:10.235Z,3.80
2022-08-26T17:18:39.025Z,6.00
2022-08-26T17:21:10.485Z,4.90
2022-08-26T17:23:41.092Z,6.30
2022-08-26T17:26:10.889Z,5.90
2022-08-26T17:28:39.736Z,4.80
2022-08-26T17:31:09.555Z,6.10
2022-08-26T17:33:38.210Z,5.40
2022-08-26T17:36:08.077Z,5.50
2022-08-26T17:38:37.853Z,5.30
2022-08-26T17:41:14.934Z,4.90
2022-08-26T17:43:43.929Z,6.30
2022-08-26T17:46:12.920Z,5.80
2022-08-26T17:48:41.426Z,5.90
2022-08-26T17:51:15.520Z,5.30
2022-08-26T17:53:43.948Z,6.70
2022-08-26T17:56:14.846Z,7.00
2022-08-26T17:58:50.940Z,7.60
2022-08-26T18:01:21.793Z,6.50
2022-08-26T18:03:50.379Z,6.20
2022-08-26T18:06:20.842Z,5.90
2022-08-26T18:08:49.054Z,4.40
2022-08-26T18:11:20.511Z,5.20
2022-08-26T18:13:55.609Z,5.30
2022-08-26T18:19:11.422Z,4.40
2022-08-26T18:21:39.570Z,4.80
2022-08-26T18:24:12.153Z,4.10
2022-08-26T18:26:48.374Z,5.90
2022-08-26T18:29:18.592Z,4.90
2022-08-26T18:31:48.658Z,4.80
2022-08-26T18:34:17.226Z,6.10
2022-08-26T18:36:46.162Z,5.00
2022-08-26T18:39:15.730Z,5.00
2022-08-26T18:41:47.608Z,5.60
2022-08-26T18:44:18.883Z,5.90
2022-08-26T18:46:47.779Z,5.70
2022-08-26T18:49:18.124Z,5.40
2022-08-26T18:51:47.940Z,5.50
2022-08-26T18:54:16.362Z,4.30
2022-08-26T18:56:45.342Z,5.50
2022-08-26T18:59:14.133Z,5.60
2022-08-26T19:01:43.414Z,3.80
2022-08-26T19:04:15.292Z,4.90
2022-08-26T19:06:47.801Z,4.20
2022-08-26T19:09:17.862Z,5.60
2022-08-26T19:11:47.013Z,4.30
2022-08-26T19:14:18.673Z,4.30
2022-08-26T19:16:48.764Z,5.40
2022-08-26T19:19:17.438Z,4.90
2022-08-26T19:21:47.104Z,5.20
2022-08-26T19:24:17.696Z,4.30
2022-08-26T19:26:57.702Z,4.40
2022-08-26T19:29:29.708Z,5.30
2022-08-26T19:31:58.148Z,4.80
2022-08-26T19:34:26.730Z,5.10
2022-08-26T19:36:57.009Z,4.40
2022-08-26T19:39:26.535Z,3.90
2022-08-26T19:41:56.112Z,4.30
2022-08-26T19:44:42.795Z,3.40
2022-08-26T19:47:12.004Z,3.80
2022-08-26T19:49:40.293Z,4.30
2022-08-26T19:52:09.051Z,4.10
2022-08-26T19:54:38.446Z,4.10
2022-08-26T19:57:06.782Z,4.40
2022-08-26T19:59:36.852Z,4.20
2022-08-26T20:02:10.048Z,3.50
2022-08-26T20:04:40.075Z,3.80
2022-08-26T20:07:09.325Z,2.70
2022-08-26T20:09:37.870Z,2.70
2022-08-26T20:12:07.089Z,3.00
2022-08-26T20:14:36.422Z,3.40
2022-08-26T20:17:05.866Z,2.80
2022-08-26T20:19:53.086Z,3.30
2022-08-26T20:22:21.862Z,2.90
2022-08-26T20:24:50.042Z,3.40
2022-08-26T20:27:18.232Z,3.90
2022-08-26T20:29:46.376Z,3.70
2022-08-26T20:32:14.845Z,2.90
2022-08-26T20:34:43.073Z,2.90
2022-08-26T20:37:12.395Z,2.70
2022-08-26T20:39:41.488Z,2.90
2022-08-26T20:42:20.291Z,2.80
2022-08-26T20:44:54.430Z,3.20
2022-08-26T20:47:23.432Z,2.90
2022-08-26T20:49:52.578Z,3.00
2022-08-26T20:52:20.822Z,2.50
2022-08-26T20:54:49.052Z,2.80
2022-08-26T20:57:17.247Z,3.40
2022-08-26T20:59:45.395Z,3.10
2022-08-26T21:02:13.651Z,3.70
2022-08-26T21:04:41.815Z,2.70
2022-08-26T21:07:09.956Z,3.30
2022-08-26T21:09:38.268Z,3.30
2022-08-26T21:12:06.644Z,3.00
2022-08-26T21:14:34.771Z,3.70
2022-08-26T21:17:03.238Z,3.20
2022-08-26T21:19:31.445Z,2.90
2022-08-26T21:21:59.700Z,2.50
2022-08-26T21:24:27.901Z,3.10
2022-08-26T21:26:56.058Z,3.30
2022-08-26T21:29:24.166Z,2.50
2022-08-26T21:31:52.433Z,2.50
2022-08-26T21:34:20.873Z,3.90
2022-08-26T21:36:49.250Z,3.20
2022-08-26T21:39:18.081Z,2.70
2022-08-26T21:41:47.359Z,3.30
2022-08-26T21:44:18.205Z,2.40
2022-08-26T21:46:47.183Z,2.30
2022-08-26T21:49:16.479Z,3.40
2022-08-26T21:51:48.064Z,3.00
2022-08-26T21:54:18.199Z,2.50
2022-08-26T21:56:47.376Z,2.20
2022-08-26T21:59:18.029Z,2.60
2022-08-26T22:01:46.910Z,2.60
2022-08-26T22:04:16.722Z,3.50
2022-08-26T22:06:48.858Z,3.00
2022-08-26T22:09:20.734Z,3.00
2022-08-26T22:11:49.992Z,4.30
2022-08-26T22:14:22.262Z,4.00
2022-08-26T22:16:51.067Z,2.70
2022-08-26T22:19:21.748Z,3.20
2022-08-26T22:21:54.031Z,3.40
2022-08-26T22:24:24.838Z,2.70
2022-08-26T22:26:54.375Z,3.30
2022-08-26T22:29:22.705Z,2.70
2022-08-26T22:31:51.025Z,3.70
2022-08-26T22:34:21.218Z,3.20
2022-08-26T22:36:50.064Z,2.60
2022-08-26T22:39:22.084Z,2.70
2022-08-26T22:41:51.375Z,2.80
2022-08-26T22:44:21.627Z,2.50
2022-08-26T22:46:54.181Z,2.80
2022-08-26T22:49:23.230Z,2.80
2022-08-26T22:51:51.419Z,2.80
2022-08-26T22:54:19.575Z,3.30
2022-08-26T22:56:47.893Z,4.00
2022-08-26T22:59:17.006Z,3.60
2022-08-26T23:01:47.007Z,2.90
2022-08-26T23:04:15.289Z,2.70
2022-08-26T23:06:47.344Z,3.90
2022-08-26T23:09:18.707Z,3.30
2022-08-26T23:11:48.643Z,3.50
2022-08-26T23:14:19.165Z,2.80
2022-08-26T23:16:48.098Z,3.00
2022-08-26T23:19:19.509Z,3.50
2022-08-26T23:21:49.685Z,3.10
2022-08-26T23:24:18.462Z,2.80
2022-08-26T23:26:47.163Z,3.40
2022-08-26T23:29:16.112Z,3.60
2022-08-26T23:31:44.976Z,3.10
2022-08-26T23:34:33.449Z,3.10
2022-08-26T23:37:02.347Z,3.00
2022-08-26T23:39:33.373Z,3.10
2022-08-26T23:42:01.836Z,2.90
2022-08-26T23:44:30.878Z,3.00
2022-08-26T23:46:59.756Z,3.30
2022-08-26T23:49:29.074Z,3.10
2022-08-26T23:52:16.366Z,3.40
2022-08-26T23:54:44.737Z,2.90
2022-08-26T23:57:12.841Z,2.50
2022-08-26T23:59:41.359Z,2.20
